Time;durP1;ratioP1;P1;durP2;ratioP2;P2;SDS_P1;SDS_P2;PMS_P1;PMS_P2;Temp;Humidity;BMP_temperature;BMP_pressure;BME280_temperature;BME280_humidity;BME280_pressure;Samples;Min_cycle;Max_cycle;Signal;HPM_P1;HPM_P2
2023/01/15 00:01:01;;;;;;;14.85;13.65;;;10.30;99.90;;;;;;4916342;29;20397;-83
2023/01/15 00:03:28;;;;;;;15.43;14.18;;;10.30;99.90;;;;;;4886862;29;20050;-83
2023/01/15 00:05:54;;;;;;;15.40;14.00;;;10.30;99.90;;;;;;4902237;29;20027;-83
2023/01/15 00:08:20;;;;;;;15.60;14.23;;;10.20;99.90;;;;;;4934949;29;20023;-83
2023/01/15 00:10:46;;;;;;;16.90;15.02;;;10.10;99.90;;;;;;4917296;29;20035;-83
2023/01/15 00:13:12;;;;;;;15.30;14.00;;;10.10;99.90;;;;;;4917411;29;20421;-81
2023/01/15 00:15:38;;;;;;;15.55;14.40;;;10.10;99.90;;;;;;4933915;28;20032;-83
2023/01/15 00:18:04;;;;;;;16.85;15.60;;;10.00;99.90;;;;;;4918357;29;20039;-83
2023/01/15 00:20:30;;;;;;;16.38;14.73;;;10.10;99.90;;;;;;4925246;29;20385;-83
2023/01/15 00:22:57;;;;;;;16.38;15.02;;;10.10;99.90;;;;;;4918808;29;20040;-83
2023/01/15 00:28:07;;;;;;;16.00;14.65;;;10.00;99.90;;;;;;4925085;29;20039;-82
2023/01/15 00:30:33;;;;;;;16.90;15.80;;;10.00;99.90;;;;;;4919841;29;20053;-82
2023/01/15 00:32:59;;;;;;;17.23;15.60;;;10.10;99.90;;;;;;4921789;29;20469;-83
2023/01/15 00:35:25;;;;;;;17.60;15.85;;;10.10;99.90;;;;;;4921179;29;20048;-83
2023/01/15 00:37:51;;;;;;;17.30;16.02;;;10.00;99.90;;;;;;4905705;29;20405;-83
2023/01/15 00:40:18;;;;;;;17.95;16.48;;;10.00;99.90;;;;;;4921926;29;20047;-83
2023/01/15 00:42:44;;;;;;;18.48;16.58;;;10.00;99.90;;;;;;4921372;29;20043;-83
2023/01/15 00:45:11;;;;;;;18.52;16.95;;;10.10;99.90;;;;;;4919603;29;20043;-83
2023/01/15 00:47:41;;;;;;;17.98;16.27;;;10.00;99.90;;;;;;4905622;29;20035;-83
2023/01/15 00:50:10;;;;;;;17.00;15.57;;;10.00;99.90;;;;;;4905717;29;20020;-83
2023/01/15 00:52:36;;;;;;;17.70;16.67;;;10.00;99.90;;;;;;4921775;29;20032;-83
2023/01/15 00:55:02;;;;;;;19.17;16.58;;;10.00;99.90;;;;;;4937619;29;20036;-83
2023/01/15 00:57:29;;;;;;;16.63;14.93;;;10.00;99.90;;;;;;4936617;29;20050;-83
2023/01/15 00:59:55;;;;;;;17.27;15.77;;;10.00;99.90;;;;;;4936317;29;20039;-83
2023/01/15 01:02:21;;;;;;;16.00;14.30;;;9.90;99.90;;;;;;4904637;29;20493;-83
2023/01/15 01:04:47;;;;;;;15.52;14.15;;;9.90;99.90;;;;;;4921025;29;20054;-83
2023/01/15 01:07:13;;;;;;;16.73;15.23;;;9.90;99.90;;;;;;4921507;29;20031;-83
2023/01/15 01:09:39;;;;;;;16.38;14.85;;;9.90;99.90;;;;;;4899211;29;20113;-83
2023/01/15 01:12:05;;;;;;;15.05;13.95;;;9.90;99.90;;;;;;4928513;29;20477;-83
2023/01/15 01:14:31;;;;;;;15.23;13.88;;;9.90;99.90;;;;;;4919905;29;20031;-83
2023/01/15 01:16:58;;;;;;;16.90;15.35;;;9.80;99.90;;;;;;4920574;29;20040;-82
2023/01/15 01:19:24;;;;;;;15.35;14.23;;;9.70;99.90;;;;;;4920487;29;20035;-83
2023/01/15 01:21:50;;;;;;;17.65;15.60;;;9.70;99.90;;;;;;4933886;29;20050;-83
2023/01/15 01:24:19;;;;;;;16.27;14.98;;;9.70;99.90;;;;;;4919342;29;20493;-83
2023/01/15 01:26:45;;;;;;;17.95;15.73;;;9.80;99.90;;;;;;4939272;29;20031;-83
2023/01/15 01:29:12;;;;;;;17.63;16.33;;;9.80;99.90;;;;;;4939237;29;20038;-83
2023/01/15 01:31:38;;;;;;;16.70;15.38;;;9.80;99.90;;;;;;4937501;29;20401;-83
2023/01/15 01:34:04;;;;;;;18.60;16.90;;;9.80;99.90;;;;;;4889306;29;20046;-83
2023/01/15 01:36:32;;;;;;;17.67;16.27;;;9.80;99.90;;;;;;4919204;29;20043;-83
2023/01/15 01:38:58;;;;;;;16.00;14.52;;;9.70;99.90;;;;;;4920320;29;20031;-83
2023/01/15 01:41:24;;;;;;;17.02;15.73;;;9.70;99.90;;;;;;4919257;29;20039;-83
2023/01/15 01:43:55;;;;;;;17.30;15.63;;;9.60;99.90;;;;;;4920117;29;20481;-83
2023/01/15 01:46:22;;;;;;;16.55;14.63;;;9.60;99.90;;;;;;4919806;29;20051;-83
2023/01/15 01:48:49;;;;;;;14.70;13.45;;;9.70;99.90;;;;;;4920368;29;20032;-83
2023/01/15 01:51:15;;;;;;;14.40;13.20;;;9.60;99.90;;;;;;4920620;29;20038;-83
2023/01/15 01:53:41;;;;;;;14.27;12.88;;;9.50;99.90;;;;;;4903897;29;20044;-83
2023/01/15 01:56:08;;;;;;;15.18;12.25;;;9.50;99.90;;;;;;4919499;29;20040;-83
2023/01/15 01:58:34;;;;;;;13.07;11.98;;;9.50;99.90;;;;;;4919995;29;20039;-83
2023/01/15 02:01:00;;;;;;;12.48;11.60;;;9.40;99.90;;;;;;4903211;29;20032;-83
2023/01/15 02:03:29;;;;;;;13.75;12.40;;;9.40;99.90;;;;;;4937124;29;20481;-83
2023/01/15 02:05:57;;;;;;;13.45;12.27;;;9.40;99.90;;;;;;4888142;29;20055;-83
2023/01/15 02:08:23;;;;;;;13.45;12.18;;;9.30;99.90;;;;;;4920441;29;20390;-83
2023/01/15 02:10:52;;;;;;;14.30;13.20;;;9.30;99.90;;;;;;4919155;29;20027;-83
2023/01/15 02:13:31;;;;;;;16.40;15.10;;;9.30;99.90;;;;;;4919791;29;20052;-83
2023/01/15 02:16:22;;;;;;;16.55;15.43;;;9.40;99.90;;;;;;4899856;29;20043;-83
2023/01/15 02:19:27;;;;;;;16.40;15.23;;;9.30;99.90;;;;;;4908920;29;20404;-83
2023/01/15 02:22:10;;;;;;;15.82;14.63;;;9.30;99.90;;;;;;4896185;29;20509;-83
2023/01/15 02:25:04;;;;;;;18.85;17.55;;;9.30;99.90;;;;;;4872525;29;20052;-83
2023/01/15 02:27:30;;;;;;;17.40;16.38;;;9.30;99.90;;;;;;4874862;29;20381;-83
2023/01/15 02:30:04;;;;;;;18.40;17.13;;;9.20;99.90;;;;;;4873026;29;20053;-84
2023/01/15 02:33:03;;;;;;;23.08;21.42;;;9.20;99.90;;;;;;4862593;29;20402;-83
2023/01/15 02:35:40;;;;;;;20.42;19.17;;;9.30;99.90;;;;;;4852396;29;20048;-83
2023/01/15 02:38:08;;;;;;;21.55;20.25;;;9.30;99.90;;;;;;4877202;29;20041;-83
2023/01/15 02:40:34;;;;;;;18.50;17.10;;;9.20;99.90;;;;;;4877049;29;20082;-83
2023/01/15 02:43:00;;;;;;;15.80;14.82;;;9.20;99.90;;;;;;4876933;29;20494;-83
2023/01/15 02:45:31;;;;;;;15.90;14.57;;;9.20;99.90;;;;;;4859145;29;20045;-83
2023/01/15 02:48:04;;;;;;;14.20;13.32;;;9.10;99.90;;;;;;4877198;29;20033;-83
2023/01/15 02:50:36;;;;;;;11.98;11.25;;;9.20;99.90;;;;;;4876485;29;20044;-83
2023/01/15 02:53:04;;;;;;;13.15;12.15;;;9.10;99.90;;;;;;4877592;29;20044;-83
2023/01/15 02:55:32;;;;;;;11.95;11.15;;;9.20;99.90;;;;;;4876179;29;20068;-83
2023/01/15 02:58:01;;;;;;;12.82;11.60;;;9.20;99.90;;;;;;4871370;29;20206;-83
2023/01/15 03:00:28;;;;;;;12.55;11.55;;;9.20;99.90;;;;;;4917293;29;20035;-84
2023/01/15 03:03:00;;;;;;;12.73;11.48;;;9.10;99.90;;;;;;4912573;29;20044;-83
2023/01/15 03:05:34;;;;;;;12.50;11.60;;;9.10;99.90;;;;;;4913681;29;20469;-84
2023/01/15 03:08:01;;;;;;;14.20;12.13;;;9.10;99.90;;;;;;4918128;29;20054;-83
2023/01/15 03:10:42;;;;;;;12.83;11.93;;;9.00;99.90;;;;;;4917528;29;20051;-84
2023/01/15 03:13:08;;;;;;;12.90;11.85;;;9.00;99.90;;;;;;4933503;29;20465;-84
2023/01/15 03:18:28;;;;;;;12.63;11.73;;;9.10;99.90;;;;;;4913360;29;20047;-84
2023/01/15 03:20:56;;;;;;;12.07;11.27;;;9.00;99.90;;;;;;4901378;29;20044;-84
2023/01/15 03:23:22;;;;;;;12.80;11.80;;;9.00;99.90;;;;;;4916037;29;20043;-84
2023/01/15 03:25:49;;;;;;;12.77;11.98;;;9.00;99.90;;;;;;4917183;29;20047;-84
2023/01/15 03:28:19;;;;;;;13.07;12.15;;;9.00;99.90;;;;;;4935751;29;20035;-84
2023/01/15 03:30:45;;;;;;;12.63;11.70;;;9.00;99.90;;;;;;4908934;29;20493;-84
2023/01/15 03:33:11;;;;;;;12.37;11.57;;;9.00;99.90;;;;;;4917127;29;20043;-84
2023/01/15 03:35:56;;;;;;;12.63;11.82;;;9.00;99.90;;;;;;4914846;29;20126;-84
2023/01/15 03:38:27;;;;;;;13.05;12.15;;;8.90;99.90;;;;;;4934914;29;20050;-83
2023/01/15 03:40:56;;;;;;;12.98;11.90;;;8.90;99.90;;;;;;4902105;29;20047;-83
2023/01/15 03:43:40;;;;;;;13.10;12.07;;;8.90;99.90;;;;;;4935327;29;20035;-83
2023/01/15 03:46:33;;;;;;;12.25;11.02;;;8.90;99.90;;;;;;4898975;29;20044;-83
2023/01/15 03:49:20;;;;;;;12.57;11.32;;;8.90;99.90;;;;;;4839412;29;20049;-83
2023/01/15 03:52:05;;;;;;;13.38;12.30;;;8.80;99.90;;;;;;4838422;29;20068;-84
2023/01/15 03:54:47;;;;;;;12.37;11.50;;;8.70;99.90;;;;;;4839799;29;20045;-84
2023/01/15 03:57:20;;;;;;;12.80;11.93;;;8.80;99.90;;;;;;4857777;29;20041;-81
2023/01/15 03:59:50;;;;;;;13.53;12.60;;;8.80;99.90;;;;;;4856743;29;20065;-84
2023/01/15 04:02:16;;;;;;;13.43;12.33;;;8.80;99.90;;;;;;4857006;29;20447;-84
2023/01/15 04:04:42;;;;;;;13.63;12.83;;;8.80;99.90;;;;;;4854970;29;20042;-84
2023/01/15 04:07:08;;;;;;;14.07;12.77;;;8.80;99.90;;;;;;4854238;29;20071;-84
2023/01/15 04:09:38;;;;;;;13.50;12.57;;;8.80;99.90;;;;;;4842794;29;20038;-84
2023/01/15 04:12:05;;;;;;;13.35;12.10;;;8.80;99.90;;;;;;4841160;29;20049;-84
2023/01/15 04:14:31;;;;;;;13.53;12.63;;;8.80;99.90;;;;;;4827568;29;20056;-84
2023/01/15 04:16:57;;;;;;;13.05;12.15;;;8.80;99.90;;;;;;4826394;29;20609;-84
2023/01/15 04:19:23;;;;;;;13.18;12.10;;;8.80;99.90;;;;;;4827429;29;20038;-84
2023/01/15 04:21:49;;;;;;;13.60;12.55;;;8.70;99.90;;;;;;4853670;29;20040;-84
2023/01/15 04:24:15;;;;;;;13.27;12.15;;;8.70;99.90;;;;;;4857727;29;20038;-84
2023/01/15 04:26:41;;;;;;;13.40;12.50;;;8.60;99.90;;;;;;4909939;29;20055;-85
2023/01/15 04:29:07;;;;;;;13.13;12.03;;;8.70;99.90;;;;;;4916544;29;20028;-84
2023/01/15 04:31:35;;;;;;;12.60;11.50;;;8.60;99.90;;;;;;4934166;28;20035;-84
2023/01/15 04:34:02;;;;;;;12.90;11.85;;;8.70;99.90;;;;;;4917690;29;20034;-84
2023/01/15 04:36:28;;;;;;;12.18;11.18;;;8.70;99.90;;;;;;4917307;29;20043;-84
2023/01/15 04:38:56;;;;;;;12.05;11.20;;;8.70;99.90;;;;;;4917264;29;20051;-84
2023/01/15 04:44:07;;;;;;;11.85;11.05;;;8.60;99.90;;;;;;4925866;29;20039;-84
2023/01/15 04:46:36;;;;;;;12.30;11.15;;;8.70;99.90;;;;;;4901275;29;20048;-83
2023/01/15 04:49:04;;;;;;;12.47;11.57;;;8.60;99.90;;;;;;4918010;29;20035;-84
2023/01/15 04:51:30;;;;;;;11.77;10.70;;;8.60;99.90;;;;;;4901339;29;20032;-84
2023/01/15 04:53:56;;;;;;;12.43;11.38;;;8.60;99.90;;;;;;4899704;29;20054;-84
2023/01/15 04:56:22;;;;;;;12.90;11.60;;;8.60;99.90;;;;;;4915505;29;20040;-84
2023/01/15 04:58:48;;;;;;;11.63;10.70;;;8.60;99.90;;;;;;4917843;29;20484;-84
2023/01/15 05:01:15;;;;;;;12.30;11.20;;;8.60;99.90;;;;;;4917295;29;20028;-84
2023/01/15 05:03:41;;;;;;;14.17;11.50;;;8.50;99.90;;;;;;4917398;29;20048;-84
2023/01/15 05:06:08;;;;;;;14.07;11.37;;;8.50;99.90;;;;;;4917115;29;20044;-84
2023/01/15 05:08:34;;;;;;;12.37;11.13;;;8.50;99.90;;;;;;4917428;29;20032;-83
2023/01/15 05:11:04;;;;;;;12.83;11.73;;;8.50;99.90;;;;;;4916549;29;20051;-84
2023/01/15 05:13:32;;;;;;;12.43;11.03;;;8.50;99.90;;;;;;4919561;29;20048;-84
2023/01/15 05:16:13;;;;;;;15.03;11.27;;;8.50;99.90;;;;;;4920518;29;20051;-84
2023/01/15 05:18:40;;;;;;;12.23;11.13;;;8.40;99.90;;;;;;4905276;29;20047;-84
2023/01/15 05:21:08;;;;;;;11.67;10.77;;;8.40;99.90;;;;;;4927750;29;20048;-84
2023/01/15 05:23:35;;;;;;;13.50;11.82;;;8.40;99.90;;;;;;4920720;29;20035;-84
2023/01/15 05:26:04;;;;;;;16.50;12.00;;;8.40;99.90;;;;;;4920763;29;20051;-84
2023/01/15 05:28:30;;;;;;;13.67;12.33;;;8.30;99.90;;;;;;4912852;29;20050;-85
2023/01/15 05:30:56;;;;;;;12.93;11.47;;;8.30;99.90;;;;;;4920624;29;20043;-84
2023/01/15 05:33:22;;;;;;;12.98;11.88;;;8.30;99.90;;;;;;4936289;29;20044;-84
2023/01/15 05:35:48;;;;;;;12.93;11.80;;;8.30;99.90;;;;;;4917832;29;20042;-84
2023/01/15 05:38:14;;;;;;;18.73;12.63;;;8.30;99.90;;;;;;4920689;29;20044;-84
2023/01/15 05:40:40;;;;;;;12.63;11.60;;;8.30;99.90;;;;;;4919234;29;20055;-84
2023/01/15 05:43:07;;;;;;;16.43;11.57;;;8.30;99.90;;;;;;4920409;29;20040;-85
2023/01/15 05:45:35;;;;;;;15.50;11.63;;;8.20;99.90;;;;;;4935258;28;20071;-85
2023/01/15 05:48:01;;;;;;;13.32;12.00;;;8.20;99.90;;;;;;4920758;29;20046;-84
2023/01/15 05:50:27;;;;;;;12.83;11.53;;;8.20;99.90;;;;;;4917687;29;20497;-84
2023/01/15 05:52:53;;;;;;;13.80;12.13;;;8.20;99.90;;;;;;4919637;29;20051;-84
2023/01/15 05:55:19;;;;;;;17.43;12.17;;;8.20;99.90;;;;;;4936467;29;20531;-84
2023/01/15 05:57:45;;;;;;;21.23;16.93;;;8.20;99.90;;;;;;4919277;29;20055;-84
2023/01/15 06:00:12;;;;;;;16.57;13.97;;;8.20;99.90;;;;;;4935490;29;20036;-84
2023/01/15 06:02:38;;;;;;;15.83;14.13;;;8.20;99.90;;;;;;4920028;29;20035;-84
2023/01/15 06:05:04;;;;;;;18.23;16.57;;;8.10;99.90;;;;;;4919035;29;20038;-83
2023/01/15 06:07:30;;;;;;;17.77;15.70;;;8.10;99.90;;;;;;4918472;29;20500;-84
2023/01/15 06:09:56;;;;;;;17.07;15.40;;;8.10;99.90;;;;;;4919685;29;20044;-84
2023/01/15 06:12:22;;;;;;;19.60;17.70;;;8.00;99.90;;;;;;4920179;29;20552;-83
2023/01/15 06:14:49;;;;;;;20.87;19.00;;;8.00;99.90;;;;;;4920143;29;20039;-84
2023/01/15 06:17:15;;;;;;;18.63;17.13;;;8.00;99.90;;;;;;4919316;28;20409;-84
2023/01/15 06:19:41;;;;;;;20.00;18.13;;;8.00;99.90;;;;;;4919417;29;20031;-83
2023/01/15 06:22:07;;;;;;;18.13;16.40;;;8.00;99.90;;;;;;4919183;29;20401;-86
2023/01/15 06:24:33;;;;;;;17.27;16.07;;;7.90;99.90;;;;;;4911514;29;20040;-84
2023/01/15 06:26:59;;;;;;;17.90;16.23;;;7.90;99.90;;;;;;4927736;29;20066;-84
2023/01/15 06:29:26;;;;;;;15.57;14.50;;;7.90;99.90;;;;;;4918481;29;20039;-85
2023/01/15 06:31:52;;;;;;;16.03;14.40;;;7.90;99.90;;;;;;4936092;28;20032;-85
2023/01/15 06:34:18;;;;;;;14.27;13.07;;;7.90;99.90;;;;;;4919049;29;20043;-85
2023/01/15 06:36:44;;;;;;;15.30;13.13;;;7.90;99.90;;;;;;4918045;29;20414;-85
2023/01/15 06:39:10;;;;;;;14.90;13.80;;;7.90;99.90;;;;;;4919952;29;20044;-85
2023/01/15 06:47:23;;;;;;;13.63;12.43;;;7.80;99.90;;;;;;4922734;29;20054;-85
2023/01/15 06:49:52;;;;;;;14.47;13.27;;;7.80;99.90;;;;;;4901044;29;20048;-85
2023/01/15 06:52:18;;;;;;;13.37;12.23;;;7.80;99.90;;;;;;4915455;29;20173;-85
2023/01/15 06:54:44;;;;;;;13.73;12.40;;;7.80;99.90;;;;;;4916084;29;20055;-85
2023/01/15 06:57:10;;;;;;;14.40;12.90;;;7.70;99.90;;;;;;4915851;29;20067;-85
2023/01/15 06:59:36;;;;;;;13.07;11.90;;;7.80;99.90;;;;;;4916200;29;20040;-85
2023/01/15 07:02:02;;;;;;;12.87;11.67;;;7.80;99.90;;;;;;4915784;29;20040;-85
2023/01/15 07:04:28;;;;;;;14.97;12.60;;;7.80;99.90;;;;;;4924226;29;20389;-85
2023/01/15 07:06:55;;;;;;;14.37;13.00;;;7.70;99.90;;;;;;4902455;29;20502;-84
2023/01/15 07:09:21;;;;;;;13.93;12.47;;;7.80;99.90;;;;;;4903513;29;20039;-85
2023/01/15 07:11:50;;;;;;;14.57;13.07;;;7.80;99.90;;;;;;4903471;29;20047;-84
2023/01/15 07:14:19;;;;;;;16.50;12.50;;;7.70;99.90;;;;;;4919239;29;20226;-85
2023/01/15 07:16:45;;;;;;;16.20;13.60;;;7.70;99.90;;;;;;4935563;28;20035;-85
2023/01/15 07:19:12;;;;;;;14.33;12.90;;;7.70;99.90;;;;;;4901346;29;20044;-86
2023/01/15 07:21:38;;;;;;;18.40;14.87;;;7.70;99.90;;;;;;4918373;29;20040;-85
2023/01/15 07:24:04;;;;;;;16.63;14.93;;;7.60;99.90;;;;;;4915690;29;20505;-86
2023/01/15 07:26:31;;;;;;;17.37;15.63;;;7.70;99.90;;;;;;4926841;29;20043;-85
2023/01/15 07:28:57;;;;;;;16.90;15.50;;;7.60;99.90;;;;;;4934866;29;20402;-86
2023/01/15 07:31:23;;;;;;;17.80;14.47;;;7.60;99.90;;;;;;4901770;29;20047;-85
2023/01/15 07:33:49;;;;;;;18.83;16.87;;;7.60;99.90;;;;;;4935481;29;20362;-86
2023/01/15 07:36:15;;;;;;;17.23;15.90;;;7.60;99.90;;;;;;4917709;29;20038;-86
2023/01/15 07:38:41;;;;;;;16.80;15.23;;;7.40;99.90;;;;;;4918759;29;20392;-86
2023/01/15 07:52:05;;;;;;;18.43;16.50;;;7.30;99.90;;;;;;4921815;29;20038;-85
2023/01/15 07:54:31;;;;;;;17.23;15.47;;;7.30;99.90;;;;;;4918989;29;20389;-86
2023/01/15 07:56:57;;;;;;;17.27;15.87;;;7.30;99.90;;;;;;4913536;29;20036;-84
2023/01/15 07:59:24;;;;;;;16.73;15.37;;;7.30;99.90;;;;;;4899643;29;20402;-86
2023/01/15 08:01:50;;;;;;;18.37;16.47;;;7.30;99.90;;;;;;4925327;29;20038;-85
2023/01/15 08:04:16;;;;;;;16.00;14.40;;;7.30;99.90;;;;;;4915757;29;20480;-87
2023/01/15 08:06:42;;;;;;;18.37;16.70;;;7.30;99.90;;;;;;4918227;29;20080;-83
2023/01/15 08:09:08;;;;;;;18.37;15.07;;;7.30;99.90;;;;;;4918017;29;20035;-84
2023/01/15 08:17:04;;;;;;;18.97;15.93;;;7.30;99.90;;;;;;4921484;29;20034;-86
2023/01/15 08:19:31;;;;;;;21.83;18.37;;;7.30;99.90;;;;;;4917318;29;20036;-84
2023/01/15 08:21:57;;;;;;;16.80;14.93;;;7.30;99.90;;;;;;4915171;29;20039;-84
2023/01/15 08:24:23;;;;;;;21.10;17.33;;;7.30;99.90;;;;;;4915481;29;20028;-85
2023/01/15 08:26:50;;;;;;;23.73;18.83;;;7.30;99.90;;;;;;4924693;29;20043;-86
2023/01/15 08:29:16;;;;;;;21.57;18.93;;;7.40;99.90;;;;;;4922212;29;20035;-85
2023/01/15 08:31:42;;;;;;;17.57;15.73;;;7.30;99.90;;;;;;4916815;29;20040;-85
2023/01/15 08:34:08;;;;;;;19.17;16.07;;;7.30;99.90;;;;;;4902192;29;20031;-86
2023/01/15 08:36:36;;;;;;;20.83;18.63;;;7.40;99.90;;;;;;4906704;29;20040;-85
2023/01/15 08:39:02;;;;;;;22.00;19.20;;;7.40;99.90;;;;;;4918397;29;20023;-86
2023/01/15 08:41:29;;;;;;;16.80;14.90;;;7.40;99.90;;;;;;4918118;29;20028;-86
2023/01/15 08:43:55;;;;;;;16.03;14.53;;;7.40;99.90;;;;;;4905639;29;20055;-85
2023/01/15 08:46:21;;;;;;;15.77;13.80;;;7.40;99.90;;;;;;4915958;29;20047;-84
2023/01/15 08:48:48;;;;;;;16.37;14.77;;;7.40;99.90;;;;;;4919889;29;20032;-85
2023/01/15 08:51:14;;;;;;;16.50;14.73;;;7.40;99.90;;;;;;4921668;29;20043;-85
2023/01/15 08:53:40;;;;;;;17.93;13.80;;;7.40;99.90;;;;;;4921345;29;20047;-84
2023/01/15 08:56:17;;;;;;;19.80;16.27;;;7.50;99.90;;;;;;4921489;29;20039;-84
2023/01/15 08:58:43;;;;;;;16.83;15.30;;;7.50;99.90;;;;;;4938378;29;20036;-83
2023/01/15 09:01:11;;;;;;;17.50;14.90;;;7.50;99.90;;;;;;4919624;29;20039;-83
2023/01/15 09:03:37;;;;;;;23.67;17.50;;;7.60;99.90;;;;;;4919157;29;20040;-86
2023/01/15 09:06:04;;;;;;;17.67;15.67;;;7.60;99.90;;;;;;4920430;29;20401;-87
2023/01/15 09:08:30;;;;;;;18.23;16.40;;;7.70;99.90;;;;;;4938584;29;20036;-85
2023/01/15 09:10:58;;;;;;;17.20;15.47;;;7.70;99.90;;;;;;4921188;29;20473;-84
2023/01/15 09:13:24;;;;;;;17.03;15.57;;;7.70;99.90;;;;;;4921373;29;20047;-85
2023/01/15 09:15:51;;;;;;;20.63;16.53;;;7.80;99.90;;;;;;4919119;29;20024;-83
2023/01/15 09:18:19;;;;;;;17.13;14.90;;;7.80;99.90;;;;;;4925723;29;20063;-88
2023/01/15 09:20:46;;;;;;;20.47;16.23;;;7.90;99.90;;;;;;4931588;29;20023;-89
2023/01/15 09:23:12;;;;;;;18.87;16.97;;;7.90;99.90;;;;;;4942217;29;20042;-88
2023/01/15 09:25:38;;;;;;;17.30;15.50;;;8.00;99.90;;;;;;4920131;29;20032;-89
2023/01/15 09:28:04;;;;;;;18.27;16.57;;;8.00;99.90;;;;;;4920249;29;20050;-86
2023/01/15 09:30:30;;;;;;;16.30;14.80;;;8.00;99.90;;;;;;4918839;29;20032;-84
2023/01/15 09:32:56;;;;;;;19.17;17.03;;;8.10;99.90;;;;;;4919142;29;20039;-84
2023/01/15 09:35:23;;;;;;;22.87;15.53;;;8.20;99.90;;;;;;4917354;29;20039;-85
2023/01/15 09:37:52;;;;;;;23.67;16.27;;;8.30;99.90;;;;;;4919800;29;20097;-85
2023/01/15 09:40:40;;;;;;;25.00;15.73;;;8.30;99.90;;;;;;4920157;29;20039;-85
2023/01/15 09:43:10;;;;;;;15.10;13.53;;;8.40;99.90;;;;;;4903087;29;20039;-85
2023/01/15 09:45:43;;;;;;;17.38;12.57;;;8.40;99.90;;;;;;4918982;29;20044;-84
2023/01/15 09:48:36;;;;;;;13.57;12.23;;;8.50;99.90;;;;;;4909686;29;20055;-85
2023/01/15 09:51:02;;;;;;;17.90;14.20;;;8.50;99.90;;;;;;4934759;29;20043;-84
2023/01/15 09:53:41;;;;;;;15.55;13.75;;;8.60;99.90;;;;;;4935397;29;20047;-85
2023/01/15 09:56:18;;;;;;;16.63;12.88;;;8.70;99.90;;;;;;4903858;29;20051;-84
2023/01/15 09:58:44;;;;;;;19.33;13.80;;;8.80;99.90;;;;;;4919333;29;20511;-84
2023/01/15 10:01:16;;;;;;;13.30;11.98;;;8.80;99.90;;;;;;4902191;29;20032;-83
2023/01/15 10:03:46;;;;;;;14.10;12.55;;;8.80;99.90;;;;;;4918710;29;20036;-84
2023/01/15 10:06:30;;;;;;;15.75;12.35;;;8.90;99.90;;;;;;4915978;29;20051;-85
2023/01/15 10:09:26;;;;;;;14.85;13.30;;;9.00;99.90;;;;;;4903718;29;20032;-84
2023/01/15 10:14:44;;;;;;;15.55;14.07;;;9.20;99.90;;;;;;4922751;29;20401;-84
2023/01/15 10:17:21;;;;;;;18.85;15.13;;;9.40;99.90;;;;;;4919136;29;20032;-84
2023/01/15 10:19:47;;;;;;;16.25;14.63;;;9.50;99.90;;;;;;4920925;29;20036;-84
2023/01/15 10:22:42;;;;;;;16.30;14.70;;;9.60;99.90;;;;;;4908771;29;20053;-89
2023/01/15 10:25:16;;;;;;;16.05;14.75;;;9.70;99.90;;;;;;4905900;29;20493;-85
2023/01/15 10:27:45;;;;;;;18.02;14.10;;;9.80;99.90;;;;;;4910065;29;20044;-85
2023/01/15 10:30:16;;;;;;;18.02;16.20;;;9.80;99.90;;;;;;4917780;29;20039;-84
2023/01/15 10:32:47;;;;;;;;;;;9.80;99.90;;;;;;4920230;29;20035;-83
2023/01/15 10:35:25;;;;;;;16.83;13.80;;;9.90;99.90;;;;;;4905572;29;19911;-85
2023/01/15 10:38:13;;;;;;;19.88;14.25;;;9.90;99.90;;;;;;4936714;29;20039;-85
2023/01/15 10:41:21;;;;;;;18.52;16.60;;;9.90;99.90;;;;;;4921311;29;20028;-83
2023/01/15 10:43:52;;;;;;;21.83;14.82;;;10.00;99.90;;;;;;4891240;29;20039;-85
2023/01/15 10:46:22;;;;;;;16.55;14.98;;;10.00;99.90;;;;;;4885604;29;20033;-88
2023/01/15 10:48:53;;;;;;;18.80;15.45;;;10.00;99.90;;;;;;4877801;29;20044;-84
2023/01/15 10:51:19;;;;;;;;;;;10.10;99.90;;;;;;4894563;29;20036;-85
2023/01/15 10:54:02;;;;;;;17.48;12.43;;;10.10;99.90;;;;;;4894786;29;19911;-85
2023/01/15 10:56:44;;;;;;;16.48;14.55;;;10.10;99.90;;;;;;4895054;29;20037;-85
2023/01/15 10:59:38;;;;;;;16.88;12.82;;;10.20;99.90;;;;;;4889452;29;20048;-84
2023/01/15 11:02:19;;;;;;;17.77;13.07;;;10.30;99.90;;;;;;4894519;29;20048;-83
2023/01/15 11:04:45;;;;;;;17.70;13.05;;;10.40;99.90;;;;;;4893998;29;20049;-82
2023/01/15 11:07:12;;;;;;;14.40;12.93;;;10.40;99.90;;;;;;4879682;29;20040;-82
2023/01/15 11:09:40;;;;;;;22.65;14.90;;;10.50;99.90;;;;;;4879024;29;20040;-83
2023/01/15 11:21:12;;;;;;;14.65;12.57;;;10.50;99.90;;;;;;4926483;28;20042;-83
2023/01/15 11:23:38;;;;;;;15.93;13.85;;;10.60;99.90;;;;;;4915879;29;20520;-83
2023/01/15 11:26:04;;;;;;;15.68;13.20;;;10.60;99.90;;;;;;4918574;29;20040;-82
2023/01/15 11:28:41;;;;;;;13.95;12.60;;;10.70;99.90;;;;;;4943711;29;20028;-83
2023/01/15 11:31:09;;;;;;;15.52;14.13;;;10.90;99.90;;;;;;4899681;29;20047;-82
2023/01/15 11:33:35;;;;;;;13.00;11.90;;;11.00;99.90;;;;;;4917268;29;20038;-82
2023/01/15 11:36:03;;;;;;;13.77;12.30;;;11.00;99.90;;;;;;4898152;29;20051;-82
2023/01/15 11:38:43;;;;;;;12.70;11.45;;;10.80;99.90;;;;;;4915352;29;20039;-82
2023/01/15 11:41:19;;;;;;;14.48;13.02;;;10.40;99.90;;;;;;4915220;29;20473;-81
2023/01/15 11:52:16;;;;;;;16.85;15.63;;;9.30;99.90;;;;;;4926063;29;20050;-82
2023/01/15 11:54:44;;;;;;;15.82;14.68;;;9.50;99.90;;;;;;4917297;29;20028;-81
2023/01/15 11:57:10;;;;;;;17.90;16.30;;;9.70;99.90;;;;;;4917775;29;20042;-81
2023/01/15 11:59:36;;;;;;;15.32;13.90;;;9.80;99.90;;;;;;4915452;29;20032;-82
2023/01/15 12:02:16;;;;;;;13.15;12.02;;;10.10;99.90;;;;;;4917030;29;20080;-82
2023/01/15 12:04:53;;;;;;;18.38;14.05;;;10.20;99.90;;;;;;4931088;29;20039;-82
2023/01/15 12:07:23;;;;;;;18.00;14.07;;;10.30;99.90;;;;;;4886032;29;20063;-83
2023/01/15 12:10:03;;;;;;;18.48;13.35;;;10.40;99.90;;;;;;4917182;29;20043;-82
2023/01/15 12:12:42;;;;;;;15.30;13.32;;;10.50;99.90;;;;;;4916218;29;20042;-82
2023/01/15 12:15:08;;;;;;;17.77;16.02;;;10.50;99.90;;;;;;4916737;28;20385;-82
2023/01/15 12:18:06;;;;;;;19.08;14.60;;;10.50;99.90;;;;;;4932555;29;20046;-82
2023/01/15 12:21:10;;;;;;;17.25;15.52;;;10.50;99.90;;;;;;4917608;29;20027;-82
2023/01/15 12:23:40;;;;;;;18.55;16.13;;;10.40;99.90;;;;;;4934848;29;20046;-83
2023/01/15 12:26:26;;;;;;;15.32;12.85;;;10.30;99.90;;;;;;4918520;29;20047;-82
2023/01/15 12:29:03;;;;;;;14.35;12.52;;;10.20;99.90;;;;;;4887368;29;20047;-82
2023/01/15 12:31:40;;;;;;;15.55;14.15;;;9.90;99.90;;;;;;4898270;29;20505;-82
2023/01/15 12:34:16;;;;;;;19.63;17.92;;;9.80;99.90;;;;;;4916681;29;20039;-82
2023/01/15 12:36:58;;;;;;;17.83;16.35;;;9.60;99.90;;;;;;4915791;29;20035;-81
2023/01/15 12:39:29;;;;;;;17.83;16.30;;;9.40;99.90;;;;;;4884649;29;20051;-82
2023/01/15 12:45:07;;;;;;;17.70;16.40;;;9.60;99.90;;;;;;4933291;29;19918;-82
2023/01/15 12:48:04;;;;;;;14.85;13.93;;;9.50;99.90;;;;;;4914624;29;20055;-82
2023/01/15 12:50:58;;;;;;;14.88;13.85;;;9.40;99.90;;;;;;4931064;29;20488;-82
2023/01/15 12:53:45;;;;;;;15.73;14.48;;;9.30;99.90;;;;;;4906117;29;20374;-82
2023/01/15 12:56:14;;;;;;;13.50;12.27;;;9.20;99.90;;;;;;4915819;29;20034;-81
2023/01/15 12:58:59;;;;;;;21.65;17.40;;;9.30;99.90;;;;;;4932525;29;20039;-82
2023/01/15 13:02:12;;;;;;;16.02;14.93;;;9.50;99.90;;;;;;4932285;29;20040;-82
2023/01/15 13:05:18;;;;;;;17.08;15.88;;;9.70;99.90;;;;;;4856396;29;20038;-82
2023/01/15 13:07:56;;;;;;;17.58;16.27;;;10.00;99.90;;;;;;4802958;29;20054;-82
2023/01/15 13:10:26;;;;;;;19.38;17.70;;;10.20;99.90;;;;;;4816534;29;20038;-82
2023/01/15 13:12:53;;;;;;;14.13;12.32;;;10.40;99.90;;;;;;4800844;29;20051;-82
2023/01/15 13:15:20;;;;;;;16.13;15.10;;;10.40;99.90;;;;;;4804458;29;20054;-82
2023/01/15 13:18:08;;;;;;;16.13;14.90;;;10.30;99.90;;;;;;4804017;29;20037;-82
2023/01/15 13:20:40;;;;;;;19.33;17.45;;;10.30;99.90;;;;;;4806755;29;20057;-82
2023/01/15 13:23:24;;;;;;;17.85;16.73;;;10.20;99.90;;;;;;4816600;29;20038;-82
2023/01/15 13:26:11;;;;;;;17.45;15.95;;;10.20;99.90;;;;;;4818309;29;20521;-81
2023/01/15 13:28:52;;;;;;;15.50;14.25;;;10.20;99.90;;;;;;4813357;29;20053;-82
2023/01/15 13:31:49;;;;;;;19.63;18.08;;;10.30;99.90;;;;;;4800627;29;20031;-82
2023/01/15 13:34:38;;;;;;;17.65;16.23;;;10.40;99.90;;;;;;4818579;29;20050;-82
2023/01/15 13:37:28;;;;;;;19.48;17.67;;;10.40;99.90;;;;;;4800170;29;20055;-82
2023/01/15 13:40:00;;;;;;;14.30;13.20;;;10.50;99.90;;;;;;4840018;29;20064;-82
2023/01/15 13:42:32;;;;;;;15.13;13.85;;;10.50;99.90;;;;;;4842010;29;20052;-82
2023/01/15 13:45:14;;;;;;;19.90;18.25;;;10.50;99.90;;;;;;4861118;29;20041;-82
2023/01/15 13:47:44;;;;;;;17.13;15.88;;;10.50;99.90;;;;;;4875754;29;20157;-82